Time;durP1;ratioP1;P1;durP2;ratioP2;P2;SDS_P1;SDS_P2;PMS_P1;PMS_P2;Temp;Humidity;BMP_temperature;BMP_pressure;BME280_temperature;BME280_humidity;BME280_pressure;Samples;Min_cycle;Max_cycle;Signal;HPM_P1;HPM_P2
2022/03/02 00:00:34;;;;;;;32.42;16.98;;;8.10;62.60;;;;;;9172560;19;20025;-62
2022/03/02 00:03:39;;;;;;;33.10;16.67;;;8.10;62.70;;;;;;9174974;19;20029;-59
2022/03/02 00:06:46;;;;;;;32.90;15.95;;;8.10;62.80;;;;;;9175443;19;20789;-60
2022/03/02 00:09:52;;;;;;;38.90;17.17;;;8.10;62.70;;;;;;9173638;19;20018;-61
2022/03/02 00:12:57;;;;;;;31.60;16.05;;;8.10;62.70;;;;;;9176709;19;20010;-62
2022/03/02 00:16:02;;;;;;;35.92;17.02;;;8.10;62.70;;;;;;9176845;19;20018;-60
2022/03/02 00:19:08;;;;;;;32.03;16.38;;;8.10;62.70;;;;;;9172612;19;20051;-61
2022/03/02 00:22:15;;;;;;;34.88;16.83;;;8.10;62.80;;;;;;9171900;19;20019;-60
2022/03/02 00:25:20;;;;;;;37.30;16.27;;;8.10;62.70;;;;;;9173330;19;20011;-61
2022/03/02 00:28:26;;;;;;;33.92;16.88;;;8.10;62.80;;;;;;9178964;19;20029;-61
2022/03/02 00:31:32;;;;;;;32.72;16.08;;;8.10;63.40;;;;;;9184763;19;20411;-61
2022/03/02 00:34:37;;;;;;;31.85;14.95;;;8.00;62.70;;;;;;9182726;19;20018;-58
2022/03/02 00:37:44;;;;;;;31.02;15.88;;;8.10;62.70;;;;;;9185430;19;20360;-60
2022/03/02 00:40:49;;;;;;;32.33;16.35;;;8.10;62.70;;;;;;9178983;19;20026;-63
2022/03/02 00:43:55;;;;;;;37.63;16.35;;;8.00;62.70;;;;;;9181471;19;20014;-61
2022/03/02 00:47:01;;;;;;;32.55;17.05;;;8.00;62.70;;;;;;9180416;19;20022;-61
2022/03/02 00:50:10;;;;;;;40.75;16.95;;;8.00;62.70;;;;;;9183351;19;20026;-60
2022/03/02 00:53:18;;;;;;;30.33;15.23;;;8.00;62.70;;;;;;9183511;19;20089;-60
2022/03/02 00:56:24;;;;;;;38.65;18.13;;;8.00;62.80;;;;;;9181446;19;20133;-60
2022/03/02 00:59:29;;;;;;;31.85;15.98;;;8.00;62.80;;;;;;9183672;19;20340;-63
2022/03/02 01:02:35;;;;;;;37.72;17.10;;;8.00;62.80;;;;;;9179345;19;20018;-60
2022/03/02 01:05:40;;;;;;;33.72;17.08;;;8.00;62.80;;;;;;9179945;19;20356;-59
2022/03/02 01:08:49;;;;;;;34.17;16.05;;;8.00;62.80;;;;;;9181816;19;20022;-59
2022/03/02 01:11:55;;;;;;;28.52;15.40;;;8.00;62.90;;;;;;9180899;19;20625;-59
2022/03/02 01:15:00;;;;;;;31.13;15.45;;;8.00;62.80;;;;;;9181036;19;20036;-60
2022/03/02 01:18:05;;;;;;;34.83;16.05;;;7.90;62.80;;;;;;9182680;19;20015;-60
2022/03/02 01:21:10;;;;;;;36.80;16.83;;;7.90;62.90;;;;;;9180694;19;21448;-60
2022/03/02 01:24:18;;;;;;;36.50;18.10;;;7.90;62.80;;;;;;9179244;19;20029;-62
2022/03/02 01:27:23;;;;;;;33.38;16.08;;;7.90;62.90;;;;;;9175724;19;20357;-60
2022/03/02 01:30:28;;;;;;;31.02;15.95;;;7.90;62.90;;;;;;9178117;19;20034;-62
2022/03/02 01:33:33;;;;;;;32.75;16.88;;;7.90;62.90;;;;;;9181562;19;20025;-60
2022/03/02 01:36:38;;;;;;;35.40;16.50;;;7.90;62.90;;;;;;9180479;19;20025;-61
2022/03/02 01:39:46;;;;;;;33.45;16.30;;;7.90;62.90;;;;;;9178977;19;20029;-62
2022/03/02 01:42:51;;;;;;;32.33;16.05;;;7.90;63.00;;;;;;9183280;19;20023;-60
2022/03/02 01:45:56;;;;;;;31.13;16.42;;;7.90;63.00;;;;;;9179245;19;20018;-60
2022/03/02 01:49:01;;;;;;;30.50;16.90;;;7.90;63.00;;;;;;9179781;19;20014;-62
2022/03/02 01:52:07;;;;;;;36.28;17.23;;;7.90;63.10;;;;;;9178573;19;20381;-61
2022/03/02 01:55:16;;;;;;;32.40;17.20;;;7.80;63.00;;;;;;9179676;19;20010;-60
2022/03/02 01:58:21;;;;;;;38.58;16.38;;;7.80;63.10;;;;;;9181181;19;20022;-62
2022/03/02 02:01:26;;;;;;;30.25;16.30;;;7.80;63.10;;;;;;9176574;19;20487;-60
2022/03/02 02:04:32;;;;;;;34.58;16.55;;;7.80;63.10;;;;;;9177851;19;20089;-64
2022/03/02 02:07:37;;;;;;;28.65;15.63;;;7.80;63.10;;;;;;9178877;19;20021;-60
2022/03/02 02:10:44;;;;;;;33.03;16.42;;;7.80;63.20;;;;;;9177462;19;20029;-60
2022/03/02 02:13:49;;;;;;;27.45;16.40;;;7.80;63.20;;;;;;9180526;19;20022;-60
2022/03/02 02:16:54;;;;;;;31.88;16.67;;;7.80;63.20;;;;;;9181148;19;20014;-60
2022/03/02 02:20:00;;;;;;;37.13;17.30;;;7.80;63.90;;;;;;9181902;19;20021;-60
2022/03/02 02:23:08;;;;;;;35.70;17.92;;;7.80;63.30;;;;;;9176002;19;20018;-62
2022/03/02 02:26:13;;;;;;;40.22;17.27;;;7.80;63.30;;;;;;9178096;19;20033;-63
2022/03/02 02:29:19;;;;;;;32.22;16.35;;;7.80;63.40;;;;;;9174966;19;20018;-61
2022/03/02 02:32:24;;;;;;;34.45;17.30;;;7.70;63.40;;;;;;9179661;19;20025;-62
2022/03/02 02:35:30;;;;;;;38.65;17.52;;;7.70;63.40;;;;;;9177122;19;20032;-61
2022/03/02 02:38:37;;;;;;;33.13;17.80;;;7.70;63.40;;;;;;9178749;19;20026;-61
2022/03/02 02:41:43;;;;;;;36.30;18.40;;;7.70;63.40;;;;;;9176510;19;20026;-60
2022/03/02 02:44:47;;;;;;;40.28;17.45;;;7.60;63.40;;;;;;9178890;19;20048;-59
2022/03/02 02:47:56;;;;;;;36.58;17.83;;;7.60;63.40;;;;;;9178964;19;20015;-60
2022/03/02 02:51:01;;;;;;;34.05;18.17;;;7.60;63.50;;;;;;9177990;19;20014;-61
2022/03/02 02:54:09;;;;;;;41.97;18.10;;;7.60;63.50;;;;;;9179032;19;20018;-62
2022/03/02 02:57:14;;;;;;;39.55;19.20;;;7.60;63.60;;;;;;9176586;19;20022;-60
2022/03/02 03:00:21;;;;;;;31.17;17.50;;;7.50;64.20;;;;;;9177916;19;20145;-61
2022/03/02 03:03:26;;;;;;;29.42;16.90;;;7.50;63.60;;;;;;9174880;19;20015;-61
2022/03/02 03:06:32;;;;;;;44.13;19.25;;;7.50;63.60;;;;;;9176034;19;20014;-61
2022/03/02 03:09:39;;;;;;;35.30;17.90;;;7.50;63.70;;;;;;9177120;19;20022;-62
2022/03/02 03:12:46;;;;;;;36.08;18.50;;;7.50;63.80;;;;;;9178558;19;20362;-64
2022/03/02 03:15:52;;;;;;;43.55;18.05;;;7.50;63.80;;;;;;9176080;19;20373;-60
2022/03/02 03:18:57;;;;;;;34.97;18.10;;;7.50;63.80;;;;;;9176331;19;20467;-60
2022/03/02 03:22:05;;;;;;;41.22;18.40;;;7.40;63.80;;;;;;9176086;19;20014;-62
2022/03/02 03:25:15;;;;;;;40.08;18.63;;;7.40;63.90;;;;;;9175381;19;20033;-64
2022/03/02 03:28:20;;;;;;;34.85;17.67;;;7.40;63.90;;;;;;9171922;19;20107;-60
2022/03/02 03:31:25;;;;;;;38.45;18.27;;;7.40;64.00;;;;;;9176254;19;20488;-60
2022/03/02 03:34:30;;;;;;;35.85;17.98;;;7.40;64.00;;;;;;9175227;19;20025;-60
2022/03/02 03:37:35;;;;;;;32.60;18.35;;;7.40;64.00;;;;;;9177213;19;20025;-60
2022/03/02 03:40:43;;;;;;;38.45;19.33;;;7.30;64.00;;;;;;9176378;19;20015;-60
2022/03/02 03:43:49;;;;;;;40.10;18.27;;;7.30;64.10;;;;;;9174046;19;20023;-61
2022/03/02 03:46:54;;;;;;;42.30;19.05;;;7.30;64.10;;;;;;9172855;19;20021;-62
2022/03/02 03:50:00;;;;;;;33.13;18.20;;;7.30;64.20;;;;;;9174836;19;20010;-61
2022/03/02 03:53:05;;;;;;;37.97;18.17;;;7.30;64.20;;;;;;9175550;19;20017;-61
2022/03/02 03:56:12;;;;;;;37.80;18.77;;;7.30;64.30;;;;;;9174809;19;20023;-61
2022/03/02 03:59:17;;;;;;;35.67;19.67;;;7.30;64.30;;;;;;9178184;19;20029;-61
2022/03/02 04:02:22;;;;;;;39.65;18.80;;;7.30;64.40;;;;;;9177351;19;20014;-60
2022/03/02 04:05:27;;;;;;;42.60;20.77;;;7.30;64.40;;;;;;9182416;19;20022;-63
2022/03/02 04:08:32;;;;;;;35.25;18.88;;;7.30;64.40;;;;;;9181117;19;20019;-61
2022/03/02 04:11:40;;;;;;;35.83;19.00;;;7.20;64.40;;;;;;9185161;19;20408;-59
2022/03/02 04:14:45;;;;;;;40.65;19.35;;;7.20;64.50;;;;;;9184395;19;20026;-59
2022/03/02 04:17:50;;;;;;;34.97;19.40;;;7.20;64.50;;;;;;9186130;19;20011;-61
2022/03/02 04:20:56;;;;;;;37.45;18.70;;;7.20;64.50;;;;;;9182131;19;20034;-63
2022/03/02 04:24:01;;;;;;;40.50;20.98;;;7.20;64.60;;;;;;9182316;19;20018;-60
2022/03/02 04:27:09;;;;;;;37.30;19.60;;;7.20;64.70;;;;;;9178967;19;20018;-61
2022/03/02 04:30:15;;;;;;;35.97;19.60;;;7.20;64.70;;;;;;9184235;19;20026;-63
2022/03/02 04:33:21;;;;;;;36.92;19.23;;;7.20;64.80;;;;;;9182773;19;20014;-61
2022/03/02 04:36:26;;;;;;;41.13;18.77;;;7.20;64.80;;;;;;9183258;19;20022;-60
2022/03/02 04:39:31;;;;;;;37.53;19.88;;;7.20;64.80;;;;;;9185101;19;20022;-60
2022/03/02 04:42:38;;;;;;;41.72;18.70;;;7.20;64.80;;;;;;9180458;19;20018;-61
2022/03/02 04:45:43;;;;;;;37.58;19.60;;;7.20;64.90;;;;;;9180877;19;20042;-60
2022/03/02 04:48:48;;;;;;;39.03;20.20;;;7.10;64.90;;;;;;9180979;19;20023;-60
2022/03/02 04:51:53;;;;;;;34.08;19.15;;;7.10;64.90;;;;;;9183676;19;20018;-60
2022/03/02 04:55:11;;;;;;;38.33;18.98;;;7.10;65.00;;;;;;9183080;19;20023;-61
2022/03/02 04:58:19;;;;;;;36.42;19.45;;;7.10;65.70;;;;;;9182576;19;20017;-60
2022/03/02 05:01:24;;;;;;;39.00;19.83;;;7.10;65.10;;;;;;9184267;19;20476;-61
2022/03/02 05:04:29;;;;;;;35.83;19.00;;;7.10;65.10;;;;;;9181736;19;20053;-62
2022/03/02 05:07:34;;;;;;;40.03;19.77;;;7.10;65.20;;;;;;9179047;19;20019;-60
2022/03/02 05:10:39;;;;;;;37.90;19.10;;;7.10;65.80;;;;;;9180655;19;20018;-59
2022/03/02 05:13:47;;;;;;;38.92;18.95;;;7.10;65.30;;;;;;9179248;19;20098;-62
2022/03/02 05:16:52;;;;;;;42.35;19.17;;;7.10;65.30;;;;;;9181887;19;20027;-61
2022/03/02 05:19:57;;;;;;;37.20;18.48;;;7.00;65.20;;;;;;9181931;19;20022;-60
2022/03/02 05:23:02;;;;;;;33.58;17.88;;;7.10;65.30;;;;;;9180272;19;20490;-61
2022/03/02 05:26:07;;;;;;;39.88;19.35;;;7.00;65.30;;;;;;9178796;19;20022;-60
2022/03/02 05:29:14;;;;;;;36.05;18.83;;;7.00;65.30;;;;;;9174431;19;20022;-61
2022/03/02 05:32:19;;;;;;;32.13;17.83;;;7.00;65.30;;;;;;9180015;19;20025;-61
2022/03/02 05:35:24;;;;;;;35.00;18.17;;;7.10;65.40;;;;;;9179643;19;20018;-61
2022/03/02 05:38:29;;;;;;;40.10;18.30;;;7.00;65.30;;;;;;9179876;19;20093;-62
2022/03/02 05:41:35;;;;;;;39.72;18.75;;;7.10;65.40;;;;;;9181774;19;20030;-60
2022/03/02 05:44:44;;;;;;;35.00;17.63;;;7.00;65.30;;;;;;9181477;19;20033;-63
2022/03/02 05:47:49;;;;;;;40.92;17.63;;;7.10;65.40;;;;;;9179422;19;20341;-60
2022/03/02 05:50:55;;;;;;;34.55;16.52;;;7.00;65.30;;;;;;9179143;19;20025;-61
2022/03/02 05:54:00;;;;;;;33.25;17.77;;;7.00;65.30;;;;;;9178746;19;20082;-62
2022/03/02 05:57:05;;;;;;;34.58;18.23;;;7.00;65.30;;;;;;9179936;19;20022;-61
2022/03/02 06:00:14;;;;;;;38.72;18.45;;;7.00;65.30;;;;;;9181180;19;20018;-64
2022/03/02 06:03:20;;;;;;;30.90;16.98;;;7.00;65.40;;;;;;9181268;19;20014;-61
2022/03/02 06:06:25;;;;;;;33.63;17.95;;;7.00;65.40;;;;;;9180085;19;20018;-61
2022/03/02 06:09:31;;;;;;;36.00;17.52;;;7.00;65.50;;;;;;9176248;19;20129;-60
2022/03/02 06:12:37;;;;;;;34.45;17.70;;;6.90;65.40;;;;;;9175969;19;20045;-61
2022/03/02 06:15:57;;;;;;;35.88;17.63;;;6.90;65.40;;;;;;9179237;19;20028;-62
2022/03/02 06:19:03;;;;;;;35.35;18.38;;;6.90;65.40;;;;;;9178433;19;20476;-60
2022/03/02 06:22:19;;;;;;;43.20;18.75;;;6.90;65.40;;;;;;9179746;19;20311;-60
2022/03/02 06:25:24;;;;;;;36.10;18.90;;;6.90;65.50;;;;;;9179183;19;20026;-60
2022/03/02 06:28:29;;;;;;;33.42;17.25;;;6.90;65.50;;;;;;9174164;19;21087;-60
2022/03/02 06:31:37;;;;;;;35.90;17.55;;;6.90;65.50;;;;;;9177371;19;20022;-62
2022/03/02 06:34:42;;;;;;;29.67;16.95;;;6.90;65.50;;;;;;9178011;19;20403;-62
2022/03/02 06:37:48;;;;;;;35.08;17.90;;;6.90;65.60;;;;;;9177080;19;20475;-64
2022/03/02 06:41:03;;;;;;;31.98;16.70;;;6.90;65.60;;;;;;9179020;19;20022;-60
2022/03/02 06:44:18;;;;;;;39.22;17.70;;;6.90;65.60;;;;;;9177848;19;20026;-60
2022/03/02 06:47:28;;;;;;;36.05;17.35;;;6.80;65.60;;;;;;9178284;19;20056;-60
2022/03/02 06:50:38;;;;;;;33.72;18.17;;;6.80;65.60;;;;;;9179910;19;20472;-61
2022/03/02 06:53:47;;;;;;;36.15;16.75;;;6.80;65.60;;;;;;9179206;19;20499;-61
2022/03/02 06:56:53;;;;;;;33.13;16.95;;;6.80;65.60;;;;;;9175612;19;20086;-60
2022/03/02 07:00:02;;;;;;;33.67;16.70;;;6.80;65.60;;;;;;9176823;19;20101;-62
2022/03/02 07:03:14;;;;;;;35.55;17.73;;;6.80;65.70;;;;;;9171957;19;20025;-60
2022/03/02 07:06:19;;;;;;;36.25;16.17;;;6.80;65.70;;;;;;9166547;19;20029;-62
2022/03/02 07:09:26;;;;;;;35.50;17.00;;;6.80;65.70;;;;;;9170171;19;20026;-62
2022/03/02 07:12:31;;;;;;;33.90;17.00;;;6.90;65.80;;;;;;9168835;19;20021;-61
2022/03/02 07:15:37;;;;;;;32.13;14.93;;;6.90;65.80;;;;;;9163555;19;20026;-63
2022/03/02 07:18:45;;;;;;;30.83;15.25;;;6.90;65.70;;;;;;9166499;19;20420;-66
2022/03/02 07:21:52;;;;;;;30.88;15.10;;;6.90;65.70;;;;;;9164845;19;20606;-62
2022/03/02 07:25:03;;;;;;;32.72;15.50;;;6.90;65.70;;;;;;9168040;19;20022;-59
2022/03/02 07:28:11;;;;;;;31.33;15.55;;;6.90;65.70;;;;;;9169167;19;20363;-60
2022/03/02 07:31:17;;;;;;;37.67;16.10;;;7.00;65.60;;;;;;9173642;19;20026;-62
2022/03/02 07:34:44;;;;;;;29.90;15.32;;;7.00;65.60;;;;;;9174997;19;20503;-63
2022/03/02 07:37:49;;;;;;;30.40;15.98;;;7.10;65.70;;;;;;9176591;19;20026;-62
2022/03/02 07:40:55;;;;;;;28.85;15.15;;;7.10;65.60;;;;;;9180907;19;20039;-61
2022/03/02 07:44:00;;;;;;;30.55;15.82;;;7.20;65.60;;;;;;9172856;19;20030;-63
2022/03/02 07:47:05;;;;;;;32.45;15.77;;;7.20;65.60;;;;;;9182310;19;20018;-62
2022/03/02 07:50:15;;;;;;;32.38;15.48;;;7.30;65.60;;;;;;9180938;19;20377;-63
2022/03/02 07:53:28;;;;;;;33.50;16.02;;;7.40;65.60;;;;;;9183759;19;20021;-62
2022/03/02 07:56:34;;;;;;;31.63;16.17;;;7.50;65.60;;;;;;9185784;19;20014;-63
2022/03/02 07:59:41;;;;;;;34.97;16.38;;;7.50;65.60;;;;;;9184572;19;20018;-62
2022/03/02 08:02:47;;;;;;;28.63;14.27;;;7.70;65.60;;;;;;9183696;19;20487;-62
2022/03/02 08:05:58;;;;;;;30.88;14.93;;;7.80;65.50;;;;;;9180291;19;20014;-60
2022/03/02 08:09:05;;;;;;;27.83;13.98;;;7.90;65.50;;;;;;9181875;19;20056;-60
2022/03/02 08:12:10;;;;;;;28.00;14.27;;;8.00;65.40;;;;;;9180900;19;20467;-61
2022/03/02 08:15:18;;;;;;;28.73;14.45;;;8.20;65.40;;;;;;9183828;19;20019;-61
2022/03/02 08:18:23;;;;;;;35.50;14.30;;;8.40;65.40;;;;;;9178427;19;20387;-61
2022/03/02 08:21:36;;;;;;;25.88;13.77;;;8.50;65.20;;;;;;9184255;19;20019;-61
2022/03/02 08:24:43;;;;;;;29.58;13.93;;;8.70;65.20;;;;;;9185477;19;20490;-61
2022/03/02 08:27:48;;;;;;;26.38;13.50;;;8.80;65.00;;;;;;9174759;19;20025;-61
2022/03/02 08:30:55;;;;;;;24.27;11.88;;;9.00;64.80;;;;;;9181748;19;20018;-60
2022/03/02 08:34:02;;;;;;;29.38;12.95;;;9.20;64.70;;;;;;9181869;19;20513;-62
2022/03/02 08:37:10;;;;;;;25.52;13.05;;;9.30;64.50;;;;;;9180397;19;20014;-64
2022/03/02 08:40:17;;;;;;;22.35;12.13;;;9.50;64.30;;;;;;9182338;19;20018;-64
2022/03/02 08:43:22;;;;;;;27.42;12.57;;;9.70;64.20;;;;;;9180831;19;20022;-64
2022/03/02 08:46:28;;;;;;;26.73;14.27;;;9.90;64.00;;;;;;9182842;19;20017;-62
2022/03/02 08:49:33;;;;;;;25.17;12.85;;;10.00;63.90;;;;;;9179341;19;20018;-60
2022/03/02 08:52:41;;;;;;;26.23;12.20;;;10.20;63.70;;;;;;9182218;19;20018;-61
2022/03/02 08:55:47;;;;;;;25.38;12.73;;;10.30;63.40;;;;;;9181665;19;20019;-61
2022/03/02 08:58:54;;;;;;;22.92;12.73;;;10.50;63.20;;;;;;9180292;19;20010;-62
2022/03/02 09:02:07;;;;;;;22.15;12.20;;;10.60;63.00;;;;;;9181279;19;20047;-60
2022/03/02 09:05:12;;;;;;;22.95;11.85;;;10.70;62.80;;;;;;9181477;19;20018;-62
2022/03/02 09:08:20;;;;;;;24.65;11.57;;;10.80;62.60;;;;;;9179635;19;20021;-61
2022/03/02 09:11:26;;;;;;;21.45;11.55;;;11.00;62.40;;;;;;9175169;19;20441;-62
2022/03/02 09:14:31;;;;;;;23.85;12.13;;;11.10;62.30;;;;;;9176838;19;20014;-60
2022/03/02 09:17:36;;;;;;;24.88;11.73;;;11.20;62.10;;;;;;9176090;19;20019;-60
2022/03/02 09:20:43;;;;;;;23.05;12.52;;;11.30;61.90;;;;;;9181057;19;20102;-64
2022/03/02 09:23:53;;;;;;;22.40;11.75;;;11.30;61.70;;;;;;9180361;19;20111;-60
2022/03/02 09:26:59;;;;;;;26.67;11.55;;;11.40;61.60;;;;;;9178548;19;20019;-60
2022/03/02 09:30:07;;;;;;;24.67;12.05;;;11.50;62.00;;;;;;9175233;19;20007;-60
2022/03/02 09:33:17;;;;;;;22.08;11.93;;;11.50;61.10;;;;;;9173558;19;20555;-59
2022/03/02 09:36:25;;;;;;;19.88;10.57;;;11.60;61.00;;;;;;9177852;19;20026;-59
2022/03/02 09:39:34;;;;;;;18.80;10.52;;;11.70;60.90;;;;;;9175868;19;20021;-61
2022/03/02 09:42:47;;;;;;;20.30;11.13;;;11.80;60.70;;;;;;9180739;19;20038;-61
2022/03/02 09:45:54;;;;;;;22.30;9.95;;;11.90;60.60;;;;;;9178572;19;20329;-59
2022/03/02 09:49:05;;;;;;;24.88;10.32;;;12.00;61.10;;;;;;9180547;19;20029;-59
2022/03/02 09:52:12;;;;;;;21.67;11.43;;;12.10;60.00;;;;;;9180329;19;20010;-59
2022/03/02 09:55:23;;;;;;;19.80;10.75;;;12.20;59.90;;;;;;9177605;19;20499;-62
2022/03/02 09:58:28;;;;;;;23.02;11.77;;;12.30;60.00;;;;;;9178439;19;20026;-60
2022/03/02 10:01:35;;;;;;;20.15;10.85;;;12.30;59.60;;;;;;9178696;19;20015;-59
2022/03/02 10:04:51;;;;;;;21.00;11.13;;;12.40;59.40;;;;;;9178463;19;20056;-59
2022/03/02 10:07:59;;;;;;;21.40;11.02;;;12.50;59.20;;;;;;9173307;19;20022;-59
2022/03/02 10:11:08;;;;;;;22.48;12.20;;;12.60;59.20;;;;;;9176518;19;20022;-59
2022/03/02 10:14:14;;;;;;;20.20;10.80;;;12.60;58.80;;;;;;9173826;19;20024;-59
2022/03/02 10:17:23;;;;;;;20.40;10.52;;;12.70;59.00;;;;;;9178786;19;20022;-61
2022/03/02 10:20:31;;;;;;;20.52;10.35;;;12.80;58.80;;;;;;9177308;19;20074;-60
2022/03/02 10:23:40;;;;;;;19.17;10.85;;;12.90;58.60;;;;;;9175134;19;20483;-58
2022/03/02 10:26:53;;;;;;;22.38;9.45;;;13.00;58.50;;;;;;9176045;19;20033;-60
2022/03/02 10:30:08;;;;;;;19.63;9.95;;;13.10;58.20;;;;;;9170757;19;20369;-59
2022/03/02 10:33:22;;;;;;;19.25;10.30;;;13.20;57.90;;;;;;9175812;19;20370;-58
2022/03/02 10:36:29;;;;;;;19.38;10.73;;;13.30;57.70;;;;;;9177564;19;20508;-59
2022/03/02 10:39:54;;;;;;;18.92;10.20;;;13.40;57.80;;;;;;9178024;19;20020;-59
2022/03/02 10:43:05;;;;;;;20.10;10.68;;;13.40;57.10;;;;;;9177836;19;20082;-59
2022/03/02 10:46:12;;;;;;;21.10;10.10;;;13.50;57.10;;;;;;9176114;19;20039;-59
2022/03/02 10:49:22;;;;;;;20.15;10.82;;;13.50;57.00;;;;;;9174165;19;20022;-58
2022/03/02 10:52:29;;;;;;;23.83;10.27;;;13.60;57.00;;;;;;9175247;19;20030;-59
2022/03/02 10:55:35;;;;;;;21.95;10.10;;;13.60;56.70;;;;;;9176590;19;20023;-59
2022/03/02 10:58:50;;;;;;;18.02;9.95;;;13.70;56.50;;;;;;9176627;19;20015;-60
2022/03/02 11:01:56;;;;;;;18.25;9.73;;;13.70;56.10;;;;;;9176693;19;20399;-61
2022/03/02 11:05:04;;;;;;;18.98;10.05;;;13.80;56.10;;;;;;9175879;19;20037;-59
2022/03/02 11:08:09;;;;;;;17.63;9.23;;;13.80;55.90;;;;;;9176300;19;20451;-58
2022/03/02 11:11:14;;;;;;;18.52;9.73;;;13.90;55.90;;;;;;9173832;19;20029;-60
2022/03/02 11:14:22;;;;;;;16.92;9.98;;;13.90;56.30;;;;;;9175505;19;20368;-59
2022/03/02 11:17:27;;;;;;;20.42;10.20;;;14.00;55.50;;;;;;9176583;19;20048;-59
2022/03/02 11:20:33;;;;;;;23.27;10.98;;;14.00;55.30;;;;;;9174164;19;20022;-59
2022/03/02 11:23:44;;;;;;;17.73;10.05;;;14.00;55.10;;;;;;9173989;19;20018;-59
2022/03/02 11:26:51;;;;;;;20.95;9.50;;;14.00;54.80;;;;;;9174269;19;20017;-60
2022/03/02 11:30:08;;;;;;;23.58;10.02;;;14.00;54.90;;;;;;9166175;19;20055;-60
2022/03/02 11:33:13;;;;;;;18.17;10.20;;;14.00;54.60;;;;;;9170444;19;20034;-59
2022/03/02 11:36:21;;;;;;;15.80;8.77;;;14.10;54.90;;;;;;9169881;19;20511;-64
2022/03/02 11:39:28;;;;;;;18.17;8.52;;;14.20;54.70;;;;;;9168098;19;20056;-63
2022/03/02 11:42:37;;;;;;;14.85;8.50;;;14.20;54.40;;;;;;9172632;19;20018;-64
2022/03/02 11:45:45;;;;;;;15.63;8.57;;;14.30;54.30;;;;;;9175730;19;20007;-63
2022/03/02 11:48:51;;;;;;;17.83;8.93;;;14.30;53.80;;;;;;9170138;19;20041;-63
2022/03/02 11:52:12;;;;;;;17.13;9.00;;;14.30;54.00;;;;;;9171234;19;20042;-63
2022/03/02 11:55:20;;;;;;;17.00;9.13;;;14.30;53.50;;;;;;9168555;19;20022;-63
2022/03/02 11:58:28;;;;;;;17.85;9.45;;;14.30;53.60;;;;;;9173291;19;20018;-64
2022/03/02 12:01:54;;;;;;;17.67;8.50;;;14.30;53.60;;;;;;9172596;19;20598;-62
2022/03/02 12:05:09;;;;;;;17.83;9.02;;;14.30;53.20;;;;;;9171511;19;20516;-63
2022/03/02 12:08:17;;;;;;;18.83;9.07;;;14.30;53.60;;;;;;9174016;19;20018;-62
2022/03/02 12:11:26;;;;;;;15.50;9.13;;;14.30;53.40;;;;;;9174027;19;20408;-63
2022/03/02 12:14:42;;;;;;;17.63;9.18;;;14.40;53.20;;;;;;9172820;19;20030;-62
2022/03/02 12:17:50;;;;;;;16.35;8.27;;;14.40;52.90;;;;;;9172170;19;20381;-63
2022/03/02 12:20:58;;;;;;;15.85;8.40;;;14.40;53.00;;;;;;9169844;19;20031;-62
2022/03/02 12:24:03;;;;;;;16.05;8.13;;;14.40;53.00;;;;;;9177291;19;20338;-62
2022/03/02 12:27:10;;;;;;;16.85;8.95;;;14.40;53.00;;;;;;9174998;19;20641;-64
2022/03/02 12:30:15;;;;;;;18.50;9.38;;;14.40;52.90;;;;;;9181000;19;20018;-63
2022/03/02 12:33:24;;;;;;;14.70;7.85;;;14.40;52.90;;;;;;9176670;19;20731;-64
2022/03/02 12:36:30;;;;;;;15.65;7.40;;;14.40;52.60;;;;;;9176684;19;20010;-62
2022/03/02 12:39:47;;;;;;;14.25;8.05;;;14.40;52.30;;;;;;9176575;19;20402;-63
2022/03/02 12:42:53;;;;;;;16.27;7.57;;;14.40;52.20;;;;;;9181453;19;20094;-63
2022/03/02 12:46:02;;;;;;;15.60;7.25;;;14.30;52.20;;;;;;9180915;19;20540;-62
2022/03/02 12:49:11;;;;;;;14.10;7.75;;;14.40;52.10;;;;;;9181393;19;20018;-63
2022/03/02 12:52:17;;;;;;;13.60;7.25;;;14.40;51.90;;;;;;9178748;19;20392;-64
2022/03/02 12:55:22;;;;;;;15.55;6.85;;;14.40;51.90;;;;;;9178887;19;20676;-63
2022/03/02 12:58:27;;;;;;;14.20;7.50;;;14.30;51.70;;;;;;9182321;19;20372;-64
2022/03/02 13:01:32;;;;;;;15.35;7.80;;;14.30;51.70;;;;;;9180730;19;20003;-64
2022/03/02 13:04:47;;;;;;;13.45;7.95;;;14.20;51.60;;;;;;9185717;19;20669;-63
2022/03/02 13:08:17;;;;;;;15.20;7.57;;;14.10;51.50;;;;;;9180193;19;20010;-63
2022/03/02 13:11:27;;;;;;;13.68;8.73;;;14.00;51.30;;;;;;9179912;19;20015;-63
2022/03/02 13:14:34;;;;;;;14.32;7.68;;;13.90;51.50;;;;;;9181769;19;20014;-64
2022/03/02 13:17:40;;;;;;;13.00;7.18;;;13.80;51.60;;;;;;9181437;19;20762;-63
2022/03/02 13:20:49;;;;;;;15.60;7.82;;;13.70;51.60;;;;;;9180878;19;20038;-63
2022/03/02 13:24:21;;;;;;;14.88;7.85;;;13.60;51.50;;;;;;9181353;19;20014;-62
2022/03/02 13:27:27;;;;;;;12.07;7.32;;;13.40;51.20;;;;;;9176150;19;20025;-63
2022/03/02 13:30:32;;;;;;;11.88;7.22;;;13.40;52.30;;;;;;9181366;19;20361;-63
2022/03/02 13:34:07;;;;;;;16.77;7.93;;;13.30;51.70;;;;;;9181465;19;20134;-63
2022/03/02 13:37:15;;;;;;;13.60;6.93;;;13.20;51.30;;;;;;9182156;19;20011;-62
2022/03/02 13:40:39;;;;;;;13.07;6.63;;;13.10;51.60;;;;;;9179776;19;20018;-63
2022/03/02 13:43:44;;;;;;;14.48;7.50;;;13.00;51.30;;;;;;9178615;19;20024;-64
2022/03/02 13:47:17;;;;;;;13.10;7.30;;;13.00;51.70;;;;;;9180064;19;20033;-62
2022/03/02 13:50:28;;;;;;;12.82;6.60;;;12.90;51.30;;;;;;9178865;19;20014;-64
2022/03/02 13:53:38;;;;;;;14.38;7.10;;;12.80;51.70;;;;;;9178582;19;20471;-62
2022/03/02 13:56:43;;;;;;;12.38;6.60;;;12.70;51.50;;;;;;9180996;19;20010;-64
2022/03/02 13:59:49;;;;;;;11.05;5.50;;;12.70;51.60;;;;;;9181220;19;20029;-64
2022/03/02 14:02:58;;;;;;;10.38;5.78;;;12.60;51.50;;;;;;9178058;19;20029;-66
2022/03/02 14:06:06;;;;;;;9.57;5.93;;;12.60;51.50;;;;;;9175067;19;20044;-64
2022/03/02 14:09:16;;;;;;;13.38;6.43;;;12.50;51.40;;;;;;9166591;19;20653;-63
2022/03/02 14:12:21;;;;;;;14.88;6.45;;;12.50;51.40;;;;;;9169310;19;20018;-64
2022/03/02 14:15:29;;;;;;;15.73;7.00;;;12.50;51.60;;;;;;9172849;19;20014;-64
2022/03/02 14:18:35;;;;;;;13.05;7.13;;;12.40;51.50;;;;;;9169886;19;20022;-62
2022/03/02 14:21:40;;;;;;;12.60;6.75;;;12.40;52.20;;;;;;9170405;19;20037;-62
2022/03/02 14:24:50;;;;;;;11.70;6.28;;;12.40;51.50;;;;;;9173769;19;20041;-64
2022/03/02 14:27:59;;;;;;;9.13;5.53;;;12.40;51.40;;;;;;9167515;19;20014;-64
2022/03/02 14:31:10;;;;;;;11.80;6.97;;;12.30;51.30;;;;;;9172217;19;20345;-62
2022/03/02 14:34:15;;;;;;;12.65;6.97;;;12.30;51.30;;;;;;9172636;19;20025;-62
2022/03/02 14:37:22;;;;;;;12.13;6.78;;;12.30;51.40;;;;;;9171737;19;20816;-62
2022/03/02 14:40:31;;;;;;;12.75;6.88;;;12.30;51.40;;;;;;9171916;19;20045;-63
2022/03/02 14:43:37;;;;;;;12.93;6.10;;;12.20;51.20;;;;;;9172427;19;20018;-63
2022/03/02 14:46:42;;;;;;;13.52;6.35;;;12.20;51.20;;;;;;9175616;19;20460;-62
2022/03/02 14:49:47;;;;;;;11.55;5.93;;;12.20;51.20;;;;;;9171041;19;20365;-64
2022/03/02 14:52:56;;;;;;;11.77;6.80;;;12.20;51.20;;;;;;9169768;19;20019;-65
2022/03/02 14:56:06;;;;;;;15.32;6.25;;;12.20;51.10;;;;;;9169211;19;20010;-64
2022/03/02 14:59:14;;;;;;;10.77;6.60;;;12.20;51.10;;;;;;9171773;19;20014;-63
2022/03/02 15:02:21;;;;;;;12.63;7.53;;;12.20;51.20;;;;;;9169774;19;20014;-64
2022/03/02 15:05:28;;;;;;;11.15;7.07;;;12.20;51.20;;;;;;9171491;19;20506;-62
2022/03/02 15:08:41;;;;;;;12.00;7.32;;;12.20;51.10;;;;;;9172065;19;20696;-64
2022/03/02 15:12:10;;;;;;;13.15;7.28;;;12.30;50.90;;;;;;9172339;19;20022;-62
2022/03/02 15:15:15;;;;;;;10.93;6.13;;;12.20;51.00;;;;;;9174161;19;20364;-62
2022/03/02 15:18:20;;;;;;;11.35;6.30;;;12.20;51.00;;;;;;9168011;19;20006;-63
2022/03/02 15:21:25;;;;;;;12.40;7.22;;;12.20;50.90;;;;;;9169352;19;20369;-63
2022/03/02 15:24:32;;;;;;;11.02;7.10;;;12.20;50.80;;;;;;9171359;19;20023;-62
2022/03/02 15:27:41;;;;;;;12.10;6.97;;;12.20;50.70;;;;;;9169557;19;20702;-65
2022/03/02 15:30:47;;;;;;;11.70;6.85;;;12.20;50.70;;;;;;9170896;19;20098;-63
2022/03/02 15:33:52;;;;;;;14.05;7.63;;;12.20;50.80;;;;;;9168068;19;20791;-63
2022/03/02 15:37:01;;;;;;;12.98;7.53;;;12.20;50.70;;;;;;9172738;19;20014;-62
2022/03/02 15:40:11;;;;;;;12.95;7.40;;;12.20;50.70;;;;;;9174774;19;20670;-62
2022/03/02 15:43:19;;;;;;;14.45;8.02;;;12.20;50.70;;;;;;9175081;19;20056;-63
2022/03/02 15:46:24;;;;;;;14.88;8.68;;;12.20;50.70;;;;;;9169598;19;20027;-61
2022/03/02 15:49:46;;;;;;;13.82;7.80;;;12.10;50.80;;;;;;9169353;19;20010;-63
2022/03/02 15:52:58;;;;;;;20.95;11.05;;;12.10;50.50;;;;;;9173794;19;20018;-64
2022/03/02 15:56:17;;;;;;;16.75;9.20;;;12.10;50.80;;;;;;9177023;19;20115;-64
2022/03/02 15:59:25;;;;;;;17.45;9.18;;;12.10;50.80;;;;;;9184721;19;20124;-63
2022/03/02 16:02:32;;;;;;;15.73;8.63;;;12.10;50.80;;;;;;9183178;19;20027;-62